Time;durP1;ratioP1;P1;durP2;ratioP2;P2;SDS_P1;SDS_P2;PMS_P1;PMS_P2;Temp;Humidity;BMP_temperature;BMP_pressure;BME280_temperature;BME280_humidity;BME280_pressure;Samples;Min_cycle;Max_cycle;Signal;HPM_P1;HPM_P2
2022/01/21 00:00:37;;;;;;;36.15;11.50;;;;;;;1.50;53.37;94760.97;4996007;28;20412;-86
2022/01/21 00:03:03;;;;;;;33.78;11.65;;;;;;;0.95;54.04;94671.66;5015025;28;20065;-86
2022/01/21 00:05:28;;;;;;;38.15;12.98;;;;;;;3.05;54.58;94991.44;4996347;28;20034;-87
2022/01/21 00:07:54;;;;;;;37.28;13.63;;;;;;;3.49;54.47;95051.06;4997204;28;20075;-87
2022/01/21 00:10:19;;;;;;;42.58;13.75;;;;;;;2.17;54.55;94850.28;4996471;28;20117;-86
2022/01/21 00:12:46;;;;;;;36.17;14.60;;;;;;;3.38;54.19;95043.19;4996666;28;20049;-86
2022/01/21 00:15:12;;;;;;;42.08;12.73;;;;;;;2.48;55.15;94922.41;5012867;28;20037;-87
2022/01/21 00:17:38;;;;;;;46.20;13.32;;;;;;;2.94;55.05;95015.81;5014740;28;20034;-87
2022/01/21 00:31:02;;;;;;;31.48;13.32;;;;;;;0.98;55.05;94734.69;1381590;28;10001946;-86
2022/01/21 00:33:27;;;;;;;28.23;12.68;;;;;;;0.93;54.88;94725.91;5014171;28;20120;-87
2022/01/21 00:35:53;;;;;;;38.17;13.52;;;;;;;1.58;54.75;94835.63;4996273;28;20349;-87
2022/01/21 00:38:20;;;;;;;24.20;10.10;;;;;;;2.05;54.67;94920.13;5013949;28;20451;-87
2022/01/21 00:40:46;;;;;;;23.77;8.18;;;;;;;2.05;54.17;94907.84;5014257;28;20057;-86
2022/01/21 00:43:18;;;;;;;19.60;6.68;;;;;;;2.14;54.09;94937.06;4996066;28;20026;-86
2022/01/21 00:45:44;;;;;;;26.77;9.30;;;;;;;1.58;53.73;94844.25;5012390;28;20033;-87
2022/01/21 00:48:10;;;;;;;22.80;9.50;;;;;;;1.78;53.91;94898.81;5013756;28;20445;-87
2022/01/21 00:50:35;;;;;;;9.60;4.47;;;;;;;2.61;57.22;95003.31;4995663;28;20492;-86
2022/01/21 00:53:01;;;;;;;7.85;3.38;;;;;;;3.33;64.04;95130.41;4995826;28;20033;-86
2022/01/21 00:55:27;;;;;;;7.82;3.47;;;;;;;0.79;67.86;94743.59;5013337;28;20026;-86
2022/01/21 00:57:52;;;;;;;9.18;3.05;;;;;;;-1.45;69.50;94440.84;5013590;28;20041;-87
2022/01/21 01:00:18;;;;;;;7.43;3.10;;;;;;;-1.35;70.95;94435.91;4994213;28;20112;-87
2022/01/21 01:02:44;;;;;;;11.48;3.40;;;;;;;2.63;71.22;95064.91;4995590;28;20047;-87
2022/01/21 01:05:17;;;;;;;8.35;3.20;;;;;;;2.42;71.80;95060.22;3281338;28;10021399;-87
2022/01/21 01:07:43;;;;;;;8.57;3.47;;;;;;;1.69;73.48;94975.97;2240094;28;10001807;-88
2022/01/21 01:10:15;;;;;;;12.40;3.75;;;;;;;2.64;74.64;95110.22;4996273;28;20562;-88
2022/01/21 01:20:34;;;;;;;9.55;3.75;;;;;;;1.61;78.17;95007.66;5014416;28;20053;-87
2022/01/21 01:23:09;;;;;;;17.83;4.90;;;;;;;1.69;78.21;95036.09;4996048;28;20033;-88
2022/01/21 01:28:18;;;;;;;7.53;4.05;;;;;;;1.34;78.38;94994.16;5014027;28;20049;-88
2022/01/21 01:30:44;;;;;;;13.18;4.63;;;;;;;1.44;78.41;94987.41;4996200;28;20434;-87
2022/01/21 01:33:12;;;;;;;11.52;4.68;;;;;;;-0.12;77.59;94747.16;5014184;28;20129;-88
2022/01/21 01:35:39;;;;;;;18.40;5.30;;;;;;;-0.59;77.72;94678.31;4996354;28;20026;-87
2022/01/21 01:38:28;;;;;;;9.05;4.18;;;;;;;2.07;77.63;95082.88;4995909;28;20552;-88
2022/01/21 01:41:02;;;;;;;15.90;4.68;;;;;;;2.15;78.31;95096.44;4996449;28;20041;-88
2022/01/21 01:51:24;;;;;;;16.00;5.22;;;;;;;1.26;78.85;94958.69;5013426;28;20494;-87
2022/01/21 01:54:12;;;;;;;16.40;5.30;;;;;;;1.62;79.17;95030.97;4994823;28;20034;-87
2022/01/21 01:56:41;;;;;;;11.13;5.20;;;;;;;1.89;79.29;95063.59;4995338;28;20033;-89
2022/01/21 01:59:07;;;;;;;13.13;5.68;;;;;;;1.76;79.87;95050.69;4994897;28;20165;-88
2022/01/21 02:01:32;;;;;;;10.57;4.95;;;;;;;1.38;79.62;94972.59;4994479;28;20069;-88
2022/01/21 02:03:58;;;;;;;10.45;5.07;;;;;;;1.29;79.94;94968.69;4995230;28;20566;-88
2022/01/21 02:06:24;;;;;;;11.98;5.63;;;;;;;0.96;80.86;94939.56;4995047;28;20073;-88
2022/01/21 02:08:50;;;;;;;11.27;5.68;;;;;;;0.90;81.59;94936.03;4995129;28;20103;-88
2022/01/21 02:11:28;;;;;;;13.00;6.27;;;;;;;-2.20;80.81;94419.34;4304333;28;10001359;-88
2022/01/21 02:13:59;;;;;;;17.65;6.28;;;;;;;1.61;81.85;95042.44;1378759;28;10001977;-88
2022/01/21 02:21:39;;;;;;;17.50;6.60;;;;;;;1.21;82.12;95000.34;5013135;28;20531;-88
2022/01/21 02:24:11;;;;;;;12.80;6.93;;;;;;;1.78;82.25;95114.03;4994778;28;20045;-88
2022/01/21 02:26:37;;;;;;;;;;;;;;;1.79;82.18;95114.81;4994194;28;20080;-88
2022/01/21 02:29:04;;;;;;;20.52;7.15;;;;;;;0.54;82.38;94918.56;5011498;28;19921;-88
2022/01/21 02:31:31;;;;;;;14.05;7.47;;;;;;;1.65;82.44;95118.63;5011273;28;20057;-88
2022/01/21 02:33:57;;;;;;;14.98;6.93;;;;;;;0.78;83.81;95056.03;4993579;28;20048;-88
2022/01/21 02:36:23;;;;;;;16.60;8.68;;;;;;;0.95;84.45;95097.25;4993048;28;20120;-88
2022/01/21 02:38:48;;;;;;;16.45;8.40;;;;;;;-0.28;84.30;94880.63;4993219;28;20061;-87
2022/01/21 02:41:14;;;;;;;14.40;7.68;;;;;;;-0.55;84.00;94864.44;4995925;28;20073;-91
2022/01/21 02:43:39;;;;;;;18.83;7.80;;;;;;;0.11;84.26;94983.78;4996633;28;20432;-90
2022/01/21 02:46:16;;;;;;;13.30;6.23;;;;;;;-1.50;84.56;94743.13;4888996;28;10000780;-90
2022/01/21 02:48:42;;;;;;;13.80;6.93;;;;;;;0.60;85.00;95112.63;687103;28;10001995;-90
2022/01/21 02:51:11;;;;;;;11.02;5.75;;;;;;;0.17;85.48;95068.19;4992761;28;20364;-90
2022/01/21 02:54:03;;;;;;;10.23;5.95;;;;;;;0.06;85.12;95030.56;4993346;28;20436;-89
2022/01/21 02:56:24;;;;;;;9.85;5.10;;;;;;;-0.98;84.69;94861.69;4997330;28;20050;-89
2022/01/21 02:58:50;;;;;;;8.13;4.72;;;;;;;-1.25;84.56;94805.63;4995151;28;20050;-90
2022/01/21 03:01:17;;;;;;;9.13;4.38;;;;;;;-1.28;84.07;94795.63;4977576;28;20062;-90
2022/01/21 03:03:44;;;;;;;5.88;3.85;;;;;;;0.40;84.08;95063.19;4994612;28;20453;-91
2022/01/21 03:06:10;;;;;;;7.65;3.30;;;;;;;-1.77;84.37;94726.09;4996494;28;20478;-91
2022/01/21 03:08:36;;;;;;;5.53;3.25;;;;;;;0.56;84.74;95140.94;4979073;28;20412;-91
2022/01/21 03:11:01;;;;;;;5.45;3.30;;;;;;;-0.24;84.55;95006.91;4995658;28;20117;-91
2022/01/21 03:13:27;;;;;;;7.75;5.18;;;;;;;0.44;85.24;95127.00;4977943;28;20061;-91
2022/01/21 03:15:53;;;;;;;5.10;2.55;;;;;;;0.59;86.05;95160.63;4977249;28;20129;-91
2022/01/21 03:18:19;;;;;;;6.45;3.00;;;;;;;-1.33;85.09;94839.69;4997190;28;20508;-91
2022/01/21 03:20:45;;;;;;;5.50;2.97;;;;;;;-1.41;85.10;94816.50;4979686;28;20038;-91
2022/01/21 03:23:17;;;;;;;5.18;2.97;;;;;;;0.74;85.29;95163.72;4980527;28;20038;-91
2022/01/21 03:25:46;;;;;;;;;;;;;;;0.70;85.31;95160.72;4964804;28;20050;-92
2022/01/21 03:28:28;;;;;;;3.65;2.12;;;;;;;-0.57;84.39;94949.00;1184955;28;10022668;-91
2022/01/21 03:30:56;;;;;;;4.30;2.65;;;;;;;0.69;85.27;95166.94;4659073;28;10001552;-90
2022/01/21 03:33:30;;;;;;;5.30;2.82;;;;;;;-0.83;85.29;94934.31;4856855;28;10000687;-90
2022/01/21 03:35:56;;;;;;;3.85;2.13;;;;;;;0.06;85.53;95113.19;690534;28;10002014;-90
2022/01/21 03:38:26;;;;;;;4.05;2.67;;;;;;;-0.61;86.26;95005.91;5001077;28;20316;-90
2022/01/21 03:40:52;;;;;;;3.53;2.08;;;;;;;-0.65;85.92;95011.75;5000802;28;20121;-91
2022/01/21 03:43:19;;;;;;;2.92;2.03;;;;;;;-1.26;86.29;94921.09;5000754;28;20045;-91
2022/01/21 03:45:45;;;;;;;7.47;3.67;;;;;;;-0.27;86.34;95066.47;5000066;28;20049;-91
2022/01/21 03:48:12;;;;;;;2.67;1.90;;;;;;;-1.38;86.13;94910.56;5000117;28;20049;-91
2022/01/21 03:50:37;;;;;;;2.28;1.85;;;;;;;-0.44;86.79;95069.53;5000338;28;20241;-90
2022/01/21 03:53:04;;;;;;;7.82;2.33;;;;;;;0.36;86.90;95184.66;5000363;28;20128;-90
2022/01/21 03:55:31;;;;;;;4.88;3.15;;;;;;;0.15;87.08;95157.09;5000036;28;20527;-89
2022/01/21 03:57:58;;;;;;;7.30;3.17;;;;;;;-0.67;86.99;95043.19;4999819;28;20500;-90
2022/01/21 04:00:27;;;;;;;4.28;2.67;;;;;;;-1.76;86.77;94889.69;4999877;28;20092;-89
2022/01/21 04:02:52;;;;;;;3.97;2.75;;;;;;;-0.35;86.74;95088.34;4983278;28;20464;-88
2022/01/21 04:05:18;;;;;;;4.93;3.05;;;;;;;-1.70;86.88;94878.44;4998867;28;20025;-89
2022/01/21 04:07:44;;;;;;;7.68;3.78;;;;;;;-0.33;87.09;95093.34;4999155;28;20034;-88
2022/01/21 04:10:26;;;;;;;6.42;3.22;;;;;;;-0.37;87.44;95087.75;2872604;28;10003258;-88
2022/01/21 04:12:52;;;;;;;5.28;3.55;;;;;;;-0.17;87.21;95117.13;2930802;28;10001197;-88
2022/01/21 04:15:17;;;;;;;6.53;3.75;;;;;;;-0.89;86.80;95040.06;4998000;28;20037;-89
2022/01/21 04:17:43;;;;;;;6.18;3.35;;;;;;;-0.86;86.61;95005.03;5015370;28;20515;-88
2022/01/21 04:20:11;;;;;;;9.73;3.20;;;;;;;-0.59;86.22;95055.19;4997779;28;20041;-88
2022/01/21 04:22:37;;;;;;;6.65;3.25;;;;;;;0.38;86.80;95221.78;4997538;28;20030;-88
2022/01/21 04:25:04;;;;;;;6.18;2.90;;;;;;;-0.23;86.37;95122.38;4997753;28;20053;-88
2022/01/21 04:27:30;;;;;;;7.90;3.40;;;;;;;0.48;85.78;95219.50;4996787;28;20129;-88
2022/01/21 04:29:55;;;;;;;3.75;2.90;;;;;;;-0.20;85.57;95125.34;4996456;28;20421;-88
2022/01/21 04:32:21;;;;;;;7.30;3.55;;;;;;;-0.06;85.91;95178.22;5014415;28;20045;-88
2022/01/21 04:34:47;;;;;;;7.70;3.08;;;;;;;-0.48;85.70;95102.25;4995844;28;20050;-88
2022/01/21 04:37:14;;;;;;;8.35;2.90;;;;;;;-2.44;85.60;94831.25;5014973;28;20040;-88
2022/01/21 04:39:49;;;;;;;4.72;2.58;;;;;;;-0.34;85.96;95165.53;4988426;28;20038;-89
2022/01/21 04:47:33;;;;;;;10.15;3.45;;;;;;;0.10;85.56;95193.41;5014528;28;20551;-88
2022/01/21 04:49:59;;;;;;;16.77;3.83;;;;;;;0.23;85.45;95210.81;4996808;28;20042;-88
2022/01/21 04:52:26;;;;;;;15.02;3.35;;;;;;;0.47;85.11;95214.47;4996651;28;20053;-88
2022/01/21 04:54:52;;;;;;;29.67;4.38;;;;;;;-0.08;84.28;95125.53;4996159;28;20041;-88
2022/01/21 04:57:18;;;;;;;8.50;3.00;;;;;;;-0.37;84.42;95124.22;4996011;28;20041;-88
2022/01/21 04:59:44;;;;;;;14.68;3.90;;;;;;;-0.04;84.85;95164.00;4995259;28;20077;-88
2022/01/21 05:02:09;;;;;;;12.70;3.25;;;;;;;-1.55;84.51;94940.63;4995389;28;20037;-87
2022/01/21 05:04:36;;;;;;;16.77;4.40;;;;;;;-1.30;84.67;95000.59;4996327;28;20034;-88
2022/01/21 05:07:04;;;;;;;22.17;4.57;;;;;;;-0.62;84.01;95069.44;4995932;28;20049;-84
2022/01/21 05:09:32;;;;;;;7.03;3.47;;;;;;;-1.51;83.47;94952.19;5012978;28;20420;-86
2022/01/21 05:11:59;;;;;;;15.50;4.43;;;;;;;-0.45;83.89;95172.16;4994974;28;20034;-86
2022/01/21 05:14:40;;;;;;;13.40;3.00;;;;;;;0.51;83.52;95307.81;4995650;28;20034;-86
2022/01/21 05:17:07;;;;;;;15.55;3.60;;;;;;;-0.21;83.65;95214.97;4996056;28;20509;-87
2022/01/21 05:19:32;;;;;;;14.35;3.88;;;;;;;-1.96;84.10;94951.28;4995388;28;20048;-87
2022/01/21 05:21:58;;;;;;;25.17;5.60;;;;;;;-1.92;83.68;94985.47;4994751;28;20038;-86
2022/01/21 05:24:24;;;;;;;13.13;3.13;;;;;;;-0.95;83.53;95146.84;4996118;28;20046;-87
2022/01/21 05:26:57;;;;;;;10.38;3.13;;;;;;;-2.88;83.15;94824.03;4995954;28;20464;-87
2022/01/21 05:29:25;;;;;;;14.25;3.75;;;;;;;-1.56;83.23;95017.03;4996367;28;20092;-87
2022/01/21 05:31:51;;;;;;;27.80;4.40;;;;;;;-3.36;83.50;94772.34;5013753;28;20061;-87
2022/01/21 05:34:17;;;;;;;14.40;2.75;;;;;;;-0.07;83.27;95250.41;4996719;28;20038;-88
2022/01/21 05:36:43;;;;;;;19.70;2.97;;;;;;;-0.48;82.89;95209.06;4995616;28;20494;-87
2022/01/21 05:39:10;;;;;;;15.43;2.75;;;;;;;-1.81;82.99;95016.84;4996311;28;20037;-86
2022/01/21 05:41:37;;;;;;;28.25;3.45;;;;;;;-2.96;82.89;94837.22;5014474;28;20386;-87
2022/01/21 05:44:09;;;;;;;13.23;4.03;;;;;;;-1.49;83.11;95053.44;4996278;28;20042;-87
2022/01/21 05:46:54;;;;;;;37.28;5.85;;;;;;;-2.18;82.70;94942.91;5012616;28;20033;-88
2022/01/21 05:49:20;;;;;;;16.17;3.72;;;;;;;-2.47;82.78;94896.56;5015129;28;20045;-87
2022/01/21 05:51:46;;;;;;;27.58;4.38;;;;;;;-0.09;82.83;95249.84;5015635;28;20113;-87
2022/01/21 05:54:13;;;;;;;16.80;2.83;;;;;;;0.03;82.43;95290.91;4997845;28;20059;-88
2022/01/21 05:56:39;;;;;;;8.68;2.58;;;;;;;-2.17;82.30;95025.03;4997890;28;20033;-88
2022/01/21 05:59:06;;;;;;;10.95;2.53;;;;;;;-2.02;82.04;95040.44;4998982;28;20085;-88
2022/01/21 06:01:32;;;;;;;30.92;5.50;;;;;;;-0.16;82.86;95314.22;4997016;28;20483;-90
2022/01/21 06:04:00;;;;;;;20.70;4.40;;;;;;;-2.57;81.93;94981.81;4997624;28;20052;-87
2022/01/21 06:06:26;;;;;;;20.98;3.33;;;;;;;-0.72;82.34;95313.06;4997295;28;20038;-87
2022/01/21 06:08:51;;;;;;;19.05;2.60;;;;;;;-1.23;82.87;95212.13;4995158;28;20057;-88
2022/01/21 06:11:19;;;;;;;12.25;2.60;;;;;;;0.03;82.28;95398.63;4998475;28;20496;-90
2022/01/21 06:13:46;;;;;;;8.52;2.75;;;;;;;-1.36;81.96;95201.69;4981804;28;20141;-89
2022/01/21 06:16:12;;;;;;;8.00;2.67;;;;;;;-3.09;81.62;94928.00;4997655;28;20026;-92
2022/01/21 06:18:37;;;;;;;27.77;3.90;;;;;;;-2.02;81.57;95089.81;4996213;28;20042;-89
2022/01/21 06:21:03;;;;;;;11.70;3.03;;;;;;;-2.78;81.70;95000.94;4996778;28;20042;-89
2022/01/21 06:23:28;;;;;;;26.83;3.20;;;;;;;-1.08;81.00;95259.59;4996794;28;20030;-89
2022/01/21 06:25:54;;;;;;;9.88;2.47;;;;;;;-1.30;82.02;95289.38;4996170;28;20082;-89
2022/01/21 06:28:19;;;;;;;17.20;4.20;;;;;;;-1.34;81.79;95254.34;4996828;28;20038;-88
2022/01/21 06:30:45;;;;;;;11.90;2.60;;;;;;;-2.46;81.99;95119.69;4996914;28;20040;-89
2022/01/21 06:33:10;;;;;;;11.48;3.08;;;;;;;-0.85;81.74;95366.75;4994650;28;20038;-89
2022/01/21 06:35:36;;;;;;;11.55;2.92;;;;;;;-3.27;81.23;94964.84;5016847;28;20045;-92
2022/01/21 06:38:03;;;;;;;11.48;2.97;;;;;;;-3.39;81.24;94966.38;4998386;28;20493;-90
2022/01/21 06:40:28;;;;;;;21.08;3.03;;;;;;;-0.62;81.23;95399.44;4998257;28;20115;-88
2022/01/21 06:43:01;;;;;;;5.40;2.45;;;;;;;-1.33;81.75;95349.59;4997897;28;20053;-90
2022/01/21 06:45:26;;;;;;;5.65;2.53;;;;;;;-1.73;81.45;95270.63;4998956;28;20038;-88
2022/01/21 06:47:53;;;;;;;11.45;3.47;;;;;;;-3.58;81.29;94975.66;4997440;28;20048;-90
2022/01/21 06:50:19;;;;;;;18.65;3.55;;;;;;;-2.26;80.84;95161.31;4997761;28;20439;-87
2022/01/21 06:52:46;;;;;;;11.70;3.97;;;;;;;-3.13;79.88;95003.59;5016568;28;20064;-89
2022/01/21 06:55:14;;;;;;;26.75;4.53;;;;;;;-2.12;80.16;95146.56;4998581;28;20038;-89
2022/01/21 06:57:43;;;;;;;25.73;4.88;;;;;;;-2.90;79.90;95033.66;4994518;28;20563;-87
2022/01/21 07:00:13;;;;;;;10.77;4.90;;;;;;;-5.56;79.43;94600.97;4973526;28;20133;-87
2022/01/21 07:02:39;;;;;;;7.53;3.47;;;;;;;-2.25;79.02;95190.69;4971320;28;20042;-87
2022/01/21 07:05:29;;;;;;;;;;;;;;;;;;;;;
2022/01/21 07:07:59;;;;;;;23.40;5.50;;;;;;;-5.27;78.35;94701.59;4973478;28;20496;-88
2022/01/21 07:10:29;;;;;;;12.45;4.07;;;;;;;-2.04;77.99;95186.16;4974227;28;20056;-87
2022/01/21 07:12:58;;;;;;;20.37;5.60;;;;;;;-1.86;78.06;95231.59;4971170;28;20043;-88
2022/01/21 07:15:36;;;;;;;18.02;4.38;;;;;;;-3.53;78.95;94989.66;4971500;28;20286;-87
2022/01/21 07:18:02;;;;;;;18.33;4.35;;;;;;;-0.47;79.20;95462.59;4971222;28;20137;-86
2022/01/21 07:20:29;;;;;;;16.88;5.10;;;;;;;-5.36;79.82;94761.34;4971863;28;20133;-91
2022/01/21 07:22:55;;;;;;;20.98;4.53;;;;;;;-5.09;79.38;94804.53;4957890;28;20093;-87
2022/01/21 07:25:20;;;;;;;21.50;4.55;;;;;;;-5.43;78.68;94717.38;4972532;28;20039;-87
2022/01/21 07:27:46;;;;;;;17.60;5.78;;;;;;;-5.98;81.23;94698.22;4972754;28;20348;-89
2022/01/21 07:30:12;;;;;;;22.42;5.28;;;;;;;-2.72;81.43;95198.25;4972864;28;20501;-86
2022/01/21 07:32:42;;;;;;;49.80;6.93;;;;;;;-2.93;82.42;95148.19;4972073;28;20122;-88
2022/01/21 07:35:09;;;;;;;19.98;5.88;;;;;;;-3.59;81.96;95124.41;4974709;28;20039;-88
2022/01/21 07:37:36;;;;;;;37.95;6.20;;;;;;;-1.30;82.75;95454.09;4974744;28;20050;-87
2022/01/21 07:40:02;;;;;;;35.97;5.72;;;;;;;-1.44;82.65;95418.59;4973693;28;20053;-85
2022/01/21 07:42:29;;;;;;;31.75;6.75;;;;;;;-3.05;82.44;95176.47;4971148;28;20042;-88
2022/01/21 07:44:56;;;;;;;17.17;6.95;;;;;;;-1.63;82.32;95432.31;4971427;28;20031;-89
2022/01/21 07:47:21;;;;;;;19.77;6.53;;;;;;;-1.72;83.03;95421.25;4971121;28;20034;-85
2022/01/21 07:49:47;;;;;;;20.17;6.50;;;;;;;-0.97;83.16;95526.31;4973012;28;20046;-85
2022/01/21 07:52:13;;;;;;;19.02;6.32;;;;;;;-3.30;82.37;95147.56;4971009;28;20049;-85
2022/01/21 07:54:38;;;;;;;20.30;6.60;;;;;;;-1.69;82.76;95387.09;4972681;28;20070;-88
2022/01/21 07:57:05;;;;;;;13.82;6.38;;;;;;;-4.33;81.52;95005.59;4974979;28;20526;-90
2022/01/21 07:59:33;;;;;;;18.55;6.60;;;;;;;-1.20;82.64;95458.94;4997210;28;20058;-87
2022/01/21 08:01:59;;;;;;;20.10;6.32;;;;;;;-0.59;82.40;95563.13;5012195;28;20038;-87
2022/01/21 08:04:25;;;;;;;26.42;6.05;;;;;;;-1.70;82.41;95416.69;4993629;28;20045;-88
2022/01/21 08:06:54;;;;;;;15.23;6.05;;;;;;;-3.13;81.85;95231.88;4993433;28;20045;-89
2022/01/21 08:09:26;;;;;;;15.63;6.10;;;;;;;-1.56;82.50;95495.56;4980958;28;20037;-91
2022/01/21 08:11:55;;;;;;;15.32;5.30;;;;;;;-6.11;81.39;94760.06;5017369;28;20484;-90
2022/01/21 08:14:26;;;;;;;17.88;5.15;;;;;;;-3.96;81.69;95079.63;4999767;28;20029;-91
2022/01/21 08:16:53;;;;;;;22.23;5.18;;;;;;;-3.35;80.75;95232.88;5016255;28;20029;-89
2022/01/21 08:19:19;;;;;;;11.77;4.55;;;;;;;-3.18;81.76;95215.28;5000474;28;20470;-90
2022/01/21 08:21:48;;;;;;;22.38;5.55;;;;;;;-2.73;81.37;95315.22;5000307;28;20105;-89
2022/01/21 08:24:14;;;;;;;22.85;6.90;;;;;;;-2.67;81.30;95275.53;5023421;28;20045;-88
2022/01/21 08:26:45;;;;;;;15.75;7.10;;;;;;;-2.95;81.21;95295.50;5006229;28;20045;-90
2022/01/21 08:29:12;;;;;;;23.45;8.38;;;;;;;-6.39;81.89;94733.28;5005368;28;20516;-89
2022/01/21 08:31:38;;;;;;;21.17;8.88;;;;;;;-5.30;81.75;94895.81;5006717;28;20109;-90
2022/01/21 08:34:06;;;;;;;19.13;8.30;;;;;;;-6.34;81.98;94791.16;5005284;28;20072;-89
2022/01/21 08:36:49;;;;;;;22.00;7.70;;;;;;;-2.93;82.48;95322.06;4992756;28;20140;-90
2022/01/21 08:39:15;;;;;;;22.20;8.88;;;;;;;-2.85;82.61;95322.75;5007020;28;20217;-92
2022/01/21 08:41:42;;;;;;;16.95;7.40;;;;;;;-3.47;82.65;95244.75;5000725;28;20045;-90
2022/01/21 08:44:08;;;;;;;17.13;6.68;;;;;;;-3.84;81.18;95196.56;4996834;28;20044;-88
2022/01/21 08:46:35;;;;;;;13.07;5.40;;;;;;;-7.13;80.58;94634.59;5002856;28;20025;-87
2022/01/21 08:49:25;;;;;;;14.20;5.43;;;;;;;-2.28;81.18;95365.09;5002418;28;20052;-91
2022/01/21 08:51:58;;;;;;;20.15;6.82;;;;;;;-3.70;80.51;95176.75;5022137;28;20121;-92
2022/01/21 08:54:28;;;;;;;13.95;5.22;;;;;;;-3.25;80.58;95242.97;4995764;28;20122;-88
2022/01/21 08:56:57;;;;;;;14.02;5.40;;;;;;;-2.58;80.24;95333.31;5000742;28;20058;-90
2022/01/21 08:59:26;;;;;;;16.30;5.22;;;;;;;-4.16;80.78;95129.66;4982003;28;20450;-91
2022/01/21 09:01:55;;;;;;;18.55;4.80;;;;;;;-5.38;80.33;94913.22;5016268;28;20050;-91
2022/01/21 09:04:27;;;;;;;13.63;4.80;;;;;;;-5.20;78.81;94898.91;5015531;28;20041;-91
2022/01/21 09:06:53;;;;;;;10.57;4.97;;;;;;;-1.93;79.64;95418.72;4983857;28;20090;-91
2022/01/21 09:09:18;;;;;;;12.18;5.68;;;;;;;-4.03;79.34;95088.34;4998607;28;20066;-91
2022/01/21 09:11:48;;;;;;;13.45;5.80;;;;;;;-6.06;79.48;94777.56;4996397;28;20036;-91
2022/01/21 09:14:14;;;;;;;14.35;4.95;;;;;;;-4.03;78.63;95096.91;4999244;28;20081;-89
2022/01/21 09:16:42;;;;;;;13.50;4.65;;;;;;;-2.79;78.43;95275.25;4994618;28;20031;-90
2022/01/21 09:19:08;;;;;;;11.85;4.47;;;;;;;-3.07;77.89;95227.75;4993041;28;20069;-87
2022/01/21 09:21:37;;;;;;;14.20;4.63;;;;;;;-3.02;78.65;95287.66;4995170;28;20038;-89
2022/01/21 09:24:05;;;;;;;19.30;5.97;;;;;;;-3.59;78.84;95114.03;4995986;28;20034;-89
2022/01/21 09:26:37;;;;;;;10.80;5.00;;;;;;;-3.95;78.58;95034.63;4997126;28;20078;-89
2022/01/21 09:29:05;;;;;;;12.10;4.95;;;;;;;-3.03;77.55;95197.03;4996693;28;20058;-89
2022/01/21 09:31:32;;;;;;;18.85;5.75;;;;;;;-0.70;78.82;95525.44;4999452;28;20173;-91
2022/01/21 09:33:57;;;;;;;12.27;5.75;;;;;;;-4.36;77.61;94959.41;4980679;28;20082;-89
2022/01/21 09:36:23;;;;;;;29.15;7.82;;;;;;;-3.98;78.09;95040.19;4994696;28;20030;-89
2022/01/21 09:38:49;;;;;;;13.38;5.20;;;;;;;-3.48;77.33;95118.69;4995418;28;20515;-89
2022/01/21 09:41:17;;;;;;;15.80;5.32;;;;;;;-1.21;78.51;95460.72;4995495;28;20034;-91
2022/01/21 09:43:52;;;;;;;15.48;4.55;;;;;;;-3.03;77.53;95171.09;4994778;28;20076;-89
2022/01/21 09:46:25;;;;;;;9.18;3.80;;;;;;;-5.27;76.54;94830.03;4997365;28;20089;-88
2022/01/21 09:49:07;;;;;;;51.03;6.63;;;;;;;-4.42;77.72;94926.47;4999061;28;20038;-90
2022/01/21 09:51:32;;;;;;;;;;;;;;;-0.41;74.82;95532.94;4980296;28;20034;-89
2022/01/21 09:54:03;;;;;;;11.93;4.75;;;;;;;-1.22;73.88;95398.50;4992190;28;20045;-90
2022/01/21 09:56:30;;;;;;;18.63;6.37;;;;;;;-1.36;73.84;95404.63;4994764;28;20417;-90
2022/01/21 09:58:57;;;;;;;14.13;6.95;;;;;;;-0.95;75.23;95493.88;4995654;28;20575;-89
2022/01/21 10:01:23;;;;;;;17.45;6.45;;;;;;;-0.86;73.47;95464.09;4993704;28;20058;-87
2022/01/21 10:03:50;;;;;;;11.88;6.00;;;;;;;-1.35;72.10;95398.41;4992327;28;20042;-88
2022/01/21 10:06:21;;;;;;;10.75;5.32;;;;;;;-2.87;70.78;95139.66;4993712;28;20121;-90
2022/01/21 10:08:50;;;;;;;14.05;5.75;;;;;;;-1.41;71.79;95394.81;4990957;28;20476;-87
2022/01/21 10:11:18;;;;;;;16.80;5.88;;;;;;;-2.05;71.74;95264.31;4992699;28;20150;-88
2022/01/21 10:13:48;;;;;;;16.00;5.43;;;;;;;-1.40;70.39;95391.22;4990479;28;20575;-87
2022/01/21 10:16:13;;;;;;;16.30;5.82;;;;;;;-1.66;70.44;95320.88;4991176;28;20037;-88
2022/01/21 10:18:57;;;;;;;17.42;7.93;;;;;;;-1.05;71.51;95378.91;4993463;28;20460;-88
2022/01/21 10:21:38;;;;;;;16.23;6.82;;;;;;;-0.96;70.95;95389.94;4990443;28;20042;-87
2022/01/21 10:24:10;;;;;;;14.90;6.50;;;;;;;-2.79;71.43;95077.19;4990360;28;20446;-87
2022/01/21 10:26:49;;;;;;;9.73;4.25;;;;;;;-0.30;71.49;95483.81;4992154;28;20038;-88
2022/01/21 10:29:17;;;;;;;12.80;5.35;;;;;;;-0.17;71.27;95495.09;4992707;28;20037;-89
2022/01/21 10:31:58;;;;;;;7.97;3.92;;;;;;;-1.55;70.33;95291.72;4973171;28;20373;-88
2022/01/21 10:34:29;;;;;;;6.85;3.35;;;;;;;-4.81;69.76;94774.34;4987897;28;20056;-87
2022/01/21 10:37:03;;;;;;;13.13;4.47;;;;;;;-0.17;71.46;95458.59;4990672;28;20034;-88
2022/01/21 10:39:29;;;;;;;9.98;3.20;;;;;;;-0.27;70.28;95434.72;4991130;28;20413;-88
2022/01/21 10:41:57;;;;;;;7.05;2.90;;;;;;;0.35;69.47;95498.72;4973689;28;20034;-86
2022/01/21 10:44:30;;;;;;;11.88;3.35;;;;;;;-2.13;69.53;95118.97;4990413;28;20505;-87
2022/01/21 10:47:02;;;;;;;10.73;3.05;;;;;;;0.03;69.16;95491.69;5006719;28;20030;-86
2022/01/21 10:49:27;;;;;;;6.57;2.55;;;;;;;-0.23;68.96;95419.50;4990337;28;20783;-88
2022/01/21 10:51:55;;;;;;;10.52;2.75;;;;;;;-1.88;69.14;95147.81;4974304;28;20127;-89
2022/01/21 10:54:26;;;;;;;10.10;2.60;;;;;;;-2.32;69.13;95050.41;4990469;28;20026;-89
2022/01/21 10:57:19;;;;;;;17.03;4.40;;;;;;;1.06;70.03;95476.06;4990401;28;20030;-87
2022/01/21 10:59:55;;;;;;;13.82;3.53;;;;;;;0.83;69.49;95491.41;4990450;28;20271;-87
2022/01/21 11:02:45;;;;;;;21.65;5.07;;;;;;;-0.65;69.19;95171.41;4991446;28;20057;-91
2022/01/21 11:05:23;;;;;;;11.55;4.00;;;;;;;-1.45;68.13;95057.25;4994897;28;20058;-89
2022/01/21 11:07:54;;;;;;;13.13;4.22;;;;;;;-0.23;66.94;95263.91;4996753;28;20481;-89
2022/01/21 11:10:32;;;;;;;10.32;4.00;;;;;;;0.74;64.96;95464.72;4993397;28;20451;-87
2022/01/21 11:13:13;;;;;;;11.18;4.07;;;;;;;0.59;66.84;95453.72;4991892;28;20116;-88
2022/01/21 11:15:45;;;;;;;14.50;4.82;;;;;;;-0.13;68.49;95363.34;4991280;28;20085;-88
2022/01/21 11:18:16;;;;;;;12.63;5.25;;;;;;;0.10;69.69;95398.59;4990783;28;20042;-86
2022/01/21 11:20:45;;;;;;;10.65;4.72;;;;;;;-2.72;67.39;94953.44;4994165;28;20117;-88
2022/01/21 11:23:11;;;;;;;14.05;5.45;;;;;;;0.08;67.66;95395.44;4994746;28;20508;-86
2022/01/21 11:25:46;;;;;;;13.00;4.25;;;;;;;0.34;66.95;95450.94;4990580;28;20031;-88
2022/01/21 11:28:16;;;;;;;12.48;5.30;;;;;;;-2.48;68.32;95009.19;4990810;28;20142;-88
2022/01/21 11:30:43;;;;;;;11.02;5.50;;;;;;;-4.48;66.86;94698.66;4990821;28;20122;-88
2022/01/21 11:33:09;;;;;;;19.23;6.68;;;;;;;-1.87;68.74;95145.03;4992852;28;20030;-88
2022/01/21 11:35:37;;;;;;;10.10;4.90;;;;;;;-4.54;67.28;94714.97;4990588;28;20038;-87
2022/01/21 11:38:06;;;;;;;15.32;5.70;;;;;;;-0.27;67.45;95397.44;4990392;28;20042;-87
2022/01/21 11:40:32;;;;;;;10.18;4.88;;;;;;;-4.21;65.85;94816.91;5006415;28;20043;-86
2022/01/21 11:42:58;;;;;;;10.80;5.30;;;;;;;-1.91;67.55;95175.00;4990138;28;20034;-87
2022/01/21 11:50:36;;;;;;;20.73;7.53;;;;;;;-3.50;69.65;94853.66;4996660;28;20042;-87
2022/01/21 11:53:05;;;;;;;13.50;6.50;;;;;;;-1.86;66.54;95157.03;4996751;28;20086;-88
2022/01/21 11:55:32;;;;;;;15.07;7.15;;;;;;;0.04;69.04;95468.03;4994231;28;20026;-87
2022/01/21 11:58:17;;;;;;;12.68;6.45;;;;;;;-2.96;67.43;95000.66;4994257;28;20038;-88
2022/01/21 12:00:47;;;;;;;17.02;7.32;;;;;;;0.17;69.58;95457.59;4996464;28;20160;-88
2022/01/21 12:03:16;;;;;;;21.15;6.88;;;;;;;-2.74;67.13;95015.13;4995985;28;20076;-87
2022/01/21 12:05:42;;;;;;;18.98;7.07;;;;;;;-1.47;66.36;95199.69;4995963;28;20424;-88
2022/01/21 12:08:10;;;;;;;10.55;5.13;;;;;;;-1.72;64.26;95169.03;4995366;28;20074;-87
2022/01/21 12:10:45;;;;;;;11.73;4.72;;;;;;;-2.11;65.99;95142.97;4995393;28;20060;-88
2022/01/21 12:13:20;;;;;;;9.57;5.35;;;;;;;-0.12;65.61;95432.72;4979783;28;20497;-88
2022/01/21 12:19:17;;;;;;;10.75;4.70;;;;;;;-0.43;66.08;95448.94;5012825;28;20133;-88
2022/01/21 12:21:44;;;;;;;12.75;6.07;;;;;;;-0.57;68.14;95410.06;5013020;28;20029;-88
2022/01/21 12:24:10;;;;;;;10.93;5.75;;;;;;;-2.12;67.37;95155.16;4935202;28;20046;-89